Holbrook, Arizona
Current Conditions -  °F | °C
As of 1:56 AM on Monday 24 Nov 2014 (Local Time) from KINW Reporting Station
Clear Clear  
Wind Chill: 11°   Ceiling: Unl
Heat Index: 21°   Visibility: 10mi
Dew Point: -5°   Wind: 9mph
Humidity: 32%   Direction: 250°WSW
Pressure: 30.22"   Gusts: NA
Location:  34.9°N, 110.16°W
Report Text: KINW 240856Z AUTO 25008KT 10SM CLR M06/M21 A3022 RMK AO2 SLP239 T10611206 51004
Loading
Personal Weather Stations






























Interactive Weather Map New forecast layout! Learn more

10-Day Weather Forecast

Advertisements
Track Severe Weather on mobile